Thursday, October 23, 2014
15:54 UTC
  |  Log In   |  Register Free
Airport Search:

Hillsboro Municipal Airport
(KINJ)

Hillsboro Municipal Airport Diagram
No Airport Diagram Available

FAA data valid effective September 18, 2014 - November 13, 2014 (unless otherwise noted).

 
 
 
 
 
 
 
 
 
 
 
 
 
 

Current Aviation Weather for Hillsboro Municipal Airport (KINJ)

The most recent METAR observation for KINJ was updated at: 1515
METAR Summary (Translated METAR)
KINJ
231455Z AUTO 12003KT 10SM SCT065 BKN070 18/13 A3017 RMK AO2 T01800131
KCPT
231455Z AUTO 14004KT 10SM FEW065 BKN070 BKN100 18/14 A3019 RMK AO2
(23.6 nm NW from KINJ)
KJWY
231455Z AUTO 15004KT 10SM BKN065 OVC080 18/13 A3018 RMK AO2 T01750132
(24.4 nm NE from KINJ)
TAF
No TAF information found within 50 nm of KINJ
  Airport Weather Conditions for KINJ

 Current Weather at INJ
64° F
Mostly Cloudy
East winds at 6.9 mph
INJ NOAA Radar

Pressure: 30.16 in
Humidity: 73%
Wind: East at 6.9 MPH (6 KT)
Dew Point: 55.4°F
Visibility: 10.00 mi


Airport Weather Forecast for KINJ

Translated METAR and TAF for KINJ
Translated METAR for KINJ (1549 UTC 23 October 2014)
found at http://aviationweather.gov/adds/metars/
 
METAR text: KINJ 231535Z AUTO 13006KT 10SM SCT060 SCT070 19/13 A3018 RMK AO2 T01880128
Conditions at: KINJ (HILLSBORO , TX, US) observed 1535 UTC 23 October 2014
Temperature: 18.8°C (66°F)
Dewpoint: 12.8°C (55°F) [RH = 68%]
Pressure (altimeter): 30.18 inches Hg (1022.1 mb)
Winds: from the SE (130 degrees) at 7 MPH (6 knots; 3.1 m/s)
Visibility: 10 or more miles (16+ km)
Ceiling: at least 12,000 feet AGL
Clouds: scattered clouds at 6000 feet AGL
scattered clouds at 7000 feet AGL
Weather: automated observation with no human augmentation;
there may or may not be significant weather present at this time
Translated TAF for KINJ

There is no translated TAF available for this airport

Find All Airport Services Find A Hotel Find A Rental Car Find A Golf Course Find A Restaurant $100 Hamburger



FBO's on the Field
FBO Company Facility Photos Services Transportation Aviation Fuel Prices: Prices include tax
Catering Weather Repair Courtesy Rental Type 100LL JetA JetA+ MOGAS 8087
 
Hillsboro Municipal Airport

This FBO has not yet been rated
FS:Avfuel
Last Updated: Oct-21
Login to update fuel prices
SS:
Contact Hillsboro Municipal AirportMore FBO Information
 
Add another FBO Facility Photos Catering Weather Repair Courtesy Rental Type 100LL JetA JetA+ MOGAS 8087
Services Transportation Aviation Fuel Prices: Prices include tax


model-print
model-print
model-print
model-print